sensor_id;sensor_type;location;lat;lon;timestamp;pressure;altitude;pressure_sealevel;temperature;humidity
6218;BME280;3142;48.206;11.550;2023-05-29T00:01:58;95695.50;;;17.26;50.04
6218;BME280;3142;48.206;11.550;2023-05-29T00:04:24;95693.03;;;17.36;49.50
6218;BME280;3142;48.206;11.550;2023-05-29T00:06:50;95700.63;;;17.49;49.93
6218;BME280;3142;48.206;11.550;2023-05-29T00:09:17;95695.78;;;17.41;50.21
6218;BME280;3142;48.206;11.550;2023-05-29T00:11:45;95690.00;;;17.44;49.86
6218;BME280;3142;48.206;11.550;2023-05-29T00:14:16;95690.69;;;17.39;50.11
6218;BME280;3142;48.206;11.550;2023-05-29T00:16:44;95690.28;;;17.47;50.19
6218;BME280;3142;48.206;11.550;2023-05-29T00:19:12;95691.84;;;17.43;50.81
6218;BME280;3142;48.206;11.550;2023-05-29T00:21:38;95691.50;;;17.40;51.06
6218;BME280;3142;48.206;11.550;2023-05-29T00:24:05;95692.78;;;17.37;50.79
6218;BME280;3142;48.206;11.550;2023-05-29T00:26:31;95692.88;;;17.42;50.78
6218;BME280;3142;48.206;11.550;2023-05-29T00:28:59;95686.59;;;17.48;51.06
6218;BME280;3142;48.206;11.550;2023-05-29T00:31:25;95687.41;;;17.49;51.06
6218;BME280;3142;48.206;11.550;2023-05-29T00:33:53;95679.72;;;17.47;50.99
6218;BME280;3142;48.206;11.550;2023-05-29T00:36:19;95684.34;;;17.40;50.70
6218;BME280;3142;48.206;11.550;2023-05-29T00:38:46;95681.25;;;17.43;50.67
6218;BME280;3142;48.206;11.550;2023-05-29T00:41:14;95683.34;;;17.41;51.27
6218;BME280;3142;48.206;11.550;2023-05-29T00:43:41;95680.91;;;17.40;51.21
6218;BME280;3142;48.206;11.550;2023-05-29T00:46:09;95684.06;;;17.37;51.02
6218;BME280;3142;48.206;11.550;2023-05-29T00:48:36;95678.38;;;17.28;51.13
6218;BME280;3142;48.206;11.550;2023-05-29T00:51:03;95684.38;;;17.24;51.29
6218;BME280;3142;48.206;11.550;2023-05-29T00:53:29;95673.19;;;17.16;51.64
6218;BME280;3142;48.206;11.550;2023-05-29T00:55:56;95674.47;;;17.14;51.73
6218;BME280;3142;48.206;11.550;2023-05-29T00:58:24;95681.91;;;17.17;51.42
6218;BME280;3142;48.206;11.550;2023-05-29T01:00:50;95687.09;;;17.12;51.52
6218;BME280;3142;48.206;11.550;2023-05-29T01:03:20;95687.69;;;17.14;51.76
6218;BME280;3142;48.206;11.550;2023-05-29T01:05:48;95691.91;;;16.98;51.95
6218;BME280;3142;48.206;11.550;2023-05-29T01:08:14;95685.13;;;17.02;52.31
6218;BME280;3142;48.206;11.550;2023-05-29T01:10:41;95684.22;;;16.97;52.41
6218;BME280;3142;48.206;11.550;2023-05-29T01:13:11;95681.50;;;16.92;52.42
6218;BME280;3142;48.206;11.550;2023-05-29T01:15:46;95683.84;;;16.88;53.13
6218;BME280;3142;48.206;11.550;2023-05-29T01:18:24;95686.88;;;16.97;52.99
6218;BME280;3142;48.206;11.550;2023-05-29T01:21:00;95688.47;;;16.98;52.65
6218;BME280;3142;48.206;11.550;2023-05-29T01:23:52;95687.13;;;16.95;52.78
6218;BME280;3142;48.206;11.550;2023-05-29T01:26:43;95688.00;;;17.01;52.68
6218;BME280;3142;48.206;11.550;2023-05-29T01:29:14;95689.50;;;16.97;53.16
6218;BME280;3142;48.206;11.550;2023-05-29T01:31:42;95679.97;;;16.96;52.83
6218;BME280;3142;48.206;11.550;2023-05-29T01:34:09;95689.28;;;16.98;53.03
6218;BME280;3142;48.206;11.550;2023-05-29T01:36:35;95685.44;;;16.89;52.77
6218;BME280;3142;48.206;11.550;2023-05-29T01:39:02;95692.31;;;16.90;52.76
6218;BME280;3142;48.206;11.550;2023-05-29T01:41:31;95689.38;;;16.86;53.07
6218;BME280;3142;48.206;11.550;2023-05-29T01:44:00;95697.81;;;16.72;53.13
6218;BME280;3142;48.206;11.550;2023-05-29T01:46:28;95693.81;;;16.69;53.02
6218;BME280;3142;48.206;11.550;2023-05-29T01:48:55;95687.47;;;16.70;53.10
6218;BME280;3142;48.206;11.550;2023-05-29T01:51:22;95682.69;;;16.67;53.05
6218;BME280;3142;48.206;11.550;2023-05-29T01:53:48;95680.25;;;16.66;52.79
6218;BME280;3142;48.206;11.550;2023-05-29T01:56:15;95678.34;;;16.61;52.92
6218;BME280;3142;48.206;11.550;2023-05-29T01:58:42;95691.97;;;16.70;52.73
6218;BME280;3142;48.206;11.550;2023-05-29T02:01:10;95682.19;;;16.70;52.61
6218;BME280;3142;48.206;11.550;2023-05-29T02:03:37;95690.22;;;16.75;52.54
6218;BME280;3142;48.206;11.550;2023-05-29T02:06:03;95685.09;;;16.69;52.40
6218;BME280;3142;48.206;11.550;2023-05-29T02:08:31;95689.94;;;16.60;52.63
6218;BME280;3142;48.206;11.550;2023-05-29T02:10:58;95688.34;;;16.59;52.76
6218;BME280;3142;48.206;11.550;2023-05-29T02:13:24;95699.13;;;16.57;52.98
6218;BME280;3142;48.206;11.550;2023-05-29T02:15:51;95688.78;;;16.56;52.93
6218;BME280;3142;48.206;11.550;2023-05-29T02:18:18;95689.13;;;16.59;52.98
6218;BME280;3142;48.206;11.550;2023-05-29T02:20:45;95689.47;;;16.63;53.24
6218;BME280;3142;48.206;11.550;2023-05-29T02:23:12;95677.91;;;16.52;52.78
6218;BME280;3142;48.206;11.550;2023-05-29T02:25:38;95681.09;;;16.54;53.36
6218;BME280;3142;48.206;11.550;2023-05-29T02:28:05;95684.00;;;16.53;53.72
6218;BME280;3142;48.206;11.550;2023-05-29T02:30:32;95683.75;;;16.54;53.38
6218;BME280;3142;48.206;11.550;2023-05-29T02:32:58;95679.81;;;16.57;53.58
6218;BME280;3142;48.206;11.550;2023-05-29T02:35:26;95682.81;;;16.61;53.39
6218;BME280;3142;48.206;11.550;2023-05-29T02:37:53;95683.06;;;16.59;53.45
6218;BME280;3142;48.206;11.550;2023-05-29T02:40:20;95679.81;;;16.57;53.72
6218;BME280;3142;48.206;11.550;2023-05-29T02:42:47;95676.38;;;16.56;54.06
6218;BME280;3142;48.206;11.550;2023-05-29T02:45:13;95682.16;;;16.53;53.60
6218;BME280;3142;48.206;11.550;2023-05-29T02:47:40;95682.47;;;16.57;53.79
6218;BME280;3142;48.206;11.550;2023-05-29T02:50:07;95681.75;;;16.45;53.98
6218;BME280;3142;48.206;11.550;2023-05-29T02:52:35;95682.44;;;16.40;54.22
6218;BME280;3142;48.206;11.550;2023-05-29T02:55:02;95682.19;;;16.42;54.18
6218;BME280;3142;48.206;11.550;2023-05-29T02:57:29;95687.47;;;16.42;54.31
6218;BME280;3142;48.206;11.550;2023-05-29T02:59:55;95692.69;;;16.37;54.37
6218;BME280;3142;48.206;11.550;2023-05-29T03:02:22;95691.41;;;16.39;54.27
6218;BME280;3142;48.206;11.550;2023-05-29T03:04:48;95687.97;;;16.39;54.53
6218;BME280;3142;48.206;11.550;2023-05-29T03:07:15;95685.22;;;16.34;54.73
6218;BME280;3142;48.206;11.550;2023-05-29T03:09:43;95694.75;;;16.35;54.85
6218;BME280;3142;48.206;11.550;2023-05-29T03:12:09;95692.34;;;16.33;54.74
6218;BME280;3142;48.206;11.550;2023-05-29T03:14:36;95685.91;;;16.29;54.53
6218;BME280;3142;48.206;11.550;2023-05-29T03:17:04;95689.75;;;16.21;54.85
6218;BME280;3142;48.206;11.550;2023-05-29T03:19:30;95686.41;;;16.26;55.04
6218;BME280;3142;48.206;11.550;2023-05-29T03:21:56;95692.16;;;16.23;54.97
6218;BME280;3142;48.206;11.550;2023-05-29T03:24:23;95689.88;;;16.15;54.98
6218;BME280;3142;48.206;11.550;2023-05-29T03:26:51;95686.91;;;16.11;55.20
6218;BME280;3142;48.206;11.550;2023-05-29T03:29:18;95688.41;;;16.07;55.22
6218;BME280;3142;48.206;11.550;2023-05-29T03:31:44;95687.16;;;16.10;54.94
6218;BME280;3142;48.206;11.550;2023-05-29T03:34:11;95688.50;;;16.12;55.14
6218;BME280;3142;48.206;11.550;2023-05-29T03:36:38;95698.50;;;16.10;55.24
6218;BME280;3142;48.206;11.550;2023-05-29T03:39:04;95696.56;;;16.06;55.20
6218;BME280;3142;48.206;11.550;2023-05-29T03:41:31;95694.28;;;15.97;55.56
6218;BME280;3142;48.206;11.550;2023-05-29T03:43:59;95701.66;;;15.95;55.70
6218;BME280;3142;48.206;11.550;2023-05-29T03:46:25;95697.28;;;15.89;55.59
6218;BME280;3142;48.206;11.550;2023-05-29T03:48:52;95703.16;;;15.91;55.85
6218;BME280;3142;48.206;11.550;2023-05-29T03:51:18;95708.31;;;15.86;56.10
6218;BME280;3142;48.206;11.550;2023-05-29T03:53:45;95709.25;;;15.80;56.26
6218;BME280;3142;48.206;11.550;2023-05-29T03:56:11;95710.75;;;15.76;56.10
6218;BME280;3142;48.206;11.550;2023-05-29T03:58:38;95713.50;;;15.69;56.87
6218;BME280;3142;48.206;11.550;2023-05-29T04:01:06;95712.56;;;15.76;56.51
6218;BME280;3142;48.206;11.550;2023-05-29T04:03:33;95714.19;;;15.77;56.72
6218;BME280;3142;48.206;11.550;2023-05-29T04:06:00;95719.44;;;15.88;56.27
6218;BME280;3142;48.206;11.550;2023-05-29T04:08:26;95715.91;;;15.83;56.87
6218;BME280;3142;48.206;11.550;2023-05-29T04:10:53;95707.75;;;15.84;56.45
6218;BME280;3142;48.206;11.550;2023-05-29T04:13:19;95715.09;;;15.82;56.37
6218;BME280;3142;48.206;11.550;2023-05-29T04:15:46;95712.78;;;15.86;56.58
6218;BME280;3142;48.206;11.550;2023-05-29T04:18:13;95722.53;;;15.85;56.57
6218;BME280;3142;48.206;11.550;2023-05-29T04:20:40;95728.19;;;15.77;56.65
6218;BME280;3142;48.206;11.550;2023-05-29T04:23:08;95733.91;;;15.74;57.40
6218;BME280;3142;48.206;11.550;2023-05-29T04:25:35;95742.41;;;15.76;57.07
6218;BME280;3142;48.206;11.550;2023-05-29T04:28:02;95741.16;;;15.79;57.00
6218;BME280;3142;48.206;11.550;2023-05-29T04:30:29;95737.34;;;15.75;56.95
6218;BME280;3142;48.206;11.550;2023-05-29T04:32:57;95745.16;;;15.69;57.56
6218;BME280;3142;48.206;11.550;2023-05-29T04:35:25;95737.72;;;15.78;57.51
6218;BME280;3142;48.206;11.550;2023-05-29T04:37:53;95739.63;;;15.83;57.27
6218;BME280;3142;48.206;11.550;2023-05-29T04:40:21;95742.75;;;15.80;57.43
6218;BME280;3142;48.206;11.550;2023-05-29T04:42:48;95745.84;;;15.77;57.79
6218;BME280;3142;48.206;11.550;2023-05-29T04:45:15;95736.28;;;15.87;57.63
6218;BME280;3142;48.206;11.550;2023-05-29T04:47:41;95751.22;;;15.93;57.49
6218;BME280;3142;48.206;11.550;2023-05-29T04:50:10;95748.34;;;15.95;57.54
6218;BME280;3142;48.206;11.550;2023-05-29T04:52:38;95752.44;;;16.03;57.03
6218;BME280;3142;48.206;11.550;2023-05-29T04:55:05;95760.72;;;16.06;57.17
6218;BME280;3142;48.206;11.550;2023-05-29T04:57:32;95757.84;;;16.08;56.98
6218;BME280;3142;48.206;11.550;2023-05-29T04:59:58;95757.94;;;16.13;57.16
6218;BME280;3142;48.206;11.550;2023-05-29T05:02:24;95758.97;;;16.12;57.32
6218;BME280;3142;48.206;11.550;2023-05-29T05:04:51;95758.88;;;16.18;57.22
6218;BME280;3142;48.206;11.550;2023-05-29T05:07:17;95759.44;;;16.20;57.23
6218;BME280;3142;48.206;11.550;2023-05-29T05:09:45;95752.66;;;16.13;57.16
6218;BME280;3142;48.206;11.550;2023-05-29T05:12:12;95756.81;;;16.09;57.54
6218;BME280;3142;48.206;11.550;2023-05-29T05:14:38;95761.06;;;16.10;57.61
6218;BME280;3142;48.206;11.550;2023-05-29T05:17:04;95748.31;;;16.18;57.32
6218;BME280;3142;48.206;11.550;2023-05-29T05:19:31;95758.66;;;16.08;57.30
6218;BME280;3142;48.206;11.550;2023-05-29T05:21:58;95754.19;;;16.09;57.33
6218;BME280;3142;48.206;11.550;2023-05-29T05:24:24;95754.63;;;16.17;57.53
6218;BME280;3142;48.206;11.550;2023-05-29T05:26:52;95762.63;;;16.22;57.30
6218;BME280;3142;48.206;11.550;2023-05-29T05:29:18;95759.53;;;16.25;57.18
6218;BME280;3142;48.206;11.550;2023-05-29T05:31:45;95755.38;;;16.29;56.96
6218;BME280;3142;48.206;11.550;2023-05-29T05:34:12;95759.25;;;16.39;57.01
6218;BME280;3142;48.206;11.550;2023-05-29T05:36:38;95762.59;;;16.46;57.08
6218;BME280;3142;48.206;11.550;2023-05-29T05:39:04;95768.50;;;16.53;56.84
6218;BME280;3142;48.206;11.550;2023-05-29T05:41:31;95760.50;;;16.48;56.65
6218;BME280;3142;48.206;11.550;2023-05-29T05:43:59;95767.63;;;16.47;56.81
6218;BME280;3142;48.206;11.550;2023-05-29T05:46:25;95764.59;;;16.55;56.71
6218;BME280;3142;48.206;11.550;2023-05-29T05:48:53;95770.78;;;16.61;56.76
6218;BME280;3142;48.206;11.550;2023-05-29T05:51:22;95769.38;;;16.70;56.59
6218;BME280;3142;48.206;11.550;2023-05-29T05:53:48;95772.00;;;16.82;56.34
6218;BME280;3142;48.206;11.550;2023-05-29T05:56:15;95774.75;;;16.87;56.08
6218;BME280;3142;48.206;11.550;2023-05-29T05:58:41;95779.53;;;16.90;55.95
6218;BME280;3142;48.206;11.550;2023-05-29T06:01:09;95778.03;;;16.94;56.27
6218;BME280;3142;48.206;11.550;2023-05-29T06:03:35;95775.47;;;16.99;55.81
6218;BME280;3142;48.206;11.550;2023-05-29T06:06:03;95779.00;;;17.05;55.74
6218;BME280;3142;48.206;11.550;2023-05-29T06:08:29;95779.44;;;17.13;55.39
6218;BME280;3142;48.206;11.550;2023-05-29T06:10:56;95781.34;;;17.18;55.81
6218;BME280;3142;48.206;11.550;2023-05-29T06:13:22;95786.78;;;17.11;54.23
6218;BME280;3142;48.206;11.550;2023-05-29T06:15:49;95785.28;;;17.15;54.74
6218;BME280;3142;48.206;11.550;2023-05-29T06:18:17;95778.84;;;17.11;54.76
6218;BME280;3142;48.206;11.550;2023-05-29T06:20:43;95780.31;;;17.19;54.87
6218;BME280;3142;48.206;11.550;2023-05-29T06:23:09;95794.34;;;17.36;55.03
6218;BME280;3142;48.206;11.550;2023-05-29T06:25:36;95785.34;;;17.54;55.58
6218;BME280;3142;48.206;11.550;2023-05-29T06:28:03;95786.25;;;17.60;54.89
6218;BME280;3142;48.206;11.550;2023-05-29T06:30:31;95782.50;;;17.56;54.24
6218;BME280;3142;48.206;11.550;2023-05-29T06:32:57;95788.34;;;17.58;54.24
6218;BME280;3142;48.206;11.550;2023-05-29T06:35:25;95785.84;;;17.51;54.64
6218;BME280;3142;48.206;11.550;2023-05-29T06:37:51;95787.13;;;17.48;54.66
6218;BME280;3142;48.206;11.550;2023-05-29T06:40:18;95793.09;;;17.56;54.94
6218;BME280;3142;48.206;11.550;2023-05-29T06:42:44;95792.53;;;17.70;54.73
6218;BME280;3142;48.206;11.550;2023-05-29T06:45:11;95787.97;;;17.83;55.06
6218;BME280;3142;48.206;11.550;2023-05-29T06:47:39;95796.75;;;17.88;54.36
6218;BME280;3142;48.206;11.550;2023-05-29T06:50:07;95796.81;;;17.93;54.64
6218;BME280;3142;48.206;11.550;2023-05-29T06:52:35;95800.72;;;18.08;54.56
6218;BME280;3142;48.206;11.550;2023-05-29T06:55:01;95796.88;;;18.15;54.16
6218;BME280;3142;48.206;11.550;2023-05-29T06:57:28;95799.13;;;18.23;54.78
6218;BME280;3142;48.206;11.550;2023-05-29T06:59:54;95806.00;;;18.24;53.85
6218;BME280;3142;48.206;11.550;2023-05-29T07:02:21;95804.56;;;18.17;53.53
6218;BME280;3142;48.206;11.550;2023-05-29T07:04:47;95809.13;;;18.21;53.69
6218;BME280;3142;48.206;11.550;2023-05-29T07:07:13;95804.22;;;18.30;55.01
6218;BME280;3142;48.206;11.550;2023-05-29T07:09:41;95812.22;;;18.35;54.99
6218;BME280;3142;48.206;11.550;2023-05-29T07:12:08;95810.38;;;18.35;54.43
6218;BME280;3142;48.206;11.550;2023-05-29T07:14:34;95811.56;;;18.45;54.67
6218;BME280;3142;48.206;11.550;2023-05-29T07:17:01;95812.72;;;18.54;55.04
6218;BME280;3142;48.206;11.550;2023-05-29T07:19:27;95812.38;;;18.67;55.19
6218;BME280;3142;48.206;11.550;2023-05-29T07:21:54;95817.78;;;18.77;55.44
6218;BME280;3142;48.206;11.550;2023-05-29T07:24:21;95820.22;;;18.79;55.04
6218;BME280;3142;48.206;11.550;2023-05-29T07:26:48;95824.50;;;18.85;55.24
6218;BME280;3142;48.206;11.550;2023-05-29T07:29:15;95827.16;;;18.85;54.58
6218;BME280;3142;48.206;11.550;2023-05-29T07:31:43;95827.28;;;18.95;54.34
6218;BME280;3142;48.206;11.550;2023-05-29T07:34:09;95828.50;;;19.09;54.52
6218;BME280;3142;48.206;11.550;2023-05-29T07:36:36;95831.88;;;19.32;53.34
6218;BME280;3142;48.206;11.550;2023-05-29T07:39:03;95831.00;;;19.48;52.87
6218;BME280;3142;48.206;11.550;2023-05-29T07:41:30;95827.97;;;19.66;52.44
6218;BME280;3142;48.206;11.550;2023-05-29T07:43:58;95829.47;;;19.89;52.47
6218;BME280;3142;48.206;11.550;2023-05-29T07:46:25;95822.41;;;20.05;52.64
6218;BME280;3142;48.206;11.550;2023-05-29T07:48:51;95826.47;;;20.18;51.80
6218;BME280;3142;48.206;11.550;2023-05-29T07:51:18;95822.06;;;20.38;51.44
6218;BME280;3142;48.206;11.550;2023-05-29T07:53:44;95824.06;;;20.58;51.00
6218;BME280;3142;48.206;11.550;2023-05-29T07:56:11;95824.66;;;20.76;50.34
6218;BME280;3142;48.206;11.550;2023-05-29T07:58:38;95823.63;;;20.87;50.63
6218;BME280;3142;48.206;11.550;2023-05-29T08:01:07;95829.53;;;21.09;50.19
6218;BME280;3142;48.206;11.550;2023-05-29T08:03:34;95831.69;;;21.17;50.13
6218;BME280;3142;48.206;11.550;2023-05-29T08:06:00;95821.91;;;21.38;49.92
6218;BME280;3142;48.206;11.550;2023-05-29T08:08:28;95824.84;;;21.52;49.37
6218;BME280;3142;48.206;11.550;2023-05-29T08:10:55;95830.69;;;21.59;49.41
6218;BME280;3142;48.206;11.550;2023-05-29T08:13:21;95820.31;;;21.78;48.38
6218;BME280;3142;48.206;11.550;2023-05-29T08:15:48;95826.97;;;21.96;48.16
6218;BME280;3142;48.206;11.550;2023-05-29T08:18:16;95829.38;;;21.97;47.77
6218;BME280;3142;48.206;11.550;2023-05-29T08:20:42;95827.53;;;22.08;47.34
6218;BME280;3142;48.206;11.550;2023-05-29T08:23:10;95826.16;;;22.15;47.47
6218;BME280;3142;48.206;11.550;2023-05-29T08:25:36;95821.59;;;22.36;47.42
6218;BME280;3142;48.206;11.550;2023-05-29T08:28:02;95824.50;;;22.40;46.71
6218;BME280;3142;48.206;11.550;2023-05-29T08:30:29;95824.75;;;22.43;46.50
6218;BME280;3142;48.206;11.550;2023-05-29T08:32:56;95826.84;;;22.57;46.53
6218;BME280;3142;48.206;11.550;2023-05-29T08:35:24;95832.66;;;22.74;45.92
6218;BME280;3142;48.206;11.550;2023-05-29T08:37:50;95831.56;;;22.90;45.72
6218;BME280;3142;48.206;11.550;2023-05-29T08:40:17;95829.63;;;23.06;45.38
6218;BME280;3142;48.206;11.550;2023-05-29T08:42:47;95821.75;;;23.25;44.90
6218;BME280;3142;48.206;11.550;2023-05-29T08:45:14;95816.81;;;23.47;45.60
6218;BME280;3142;48.206;11.550;2023-05-29T08:47:41;95817.75;;;23.67;44.94
6218;BME280;3142;48.206;11.550;2023-05-29T08:50:07;95826.53;;;23.72;44.89
6218;BME280;3142;48.206;11.550;2023-05-29T08:52:36;95825.53;;;23.92;44.48
6218;BME280;3142;48.206;11.550;2023-05-29T08:55:04;95821.88;;;24.12;43.90
6218;BME280;3142;48.206;11.550;2023-05-29T08:57:31;95818.31;;;24.21;43.70
6218;BME280;3142;48.206;11.550;2023-05-29T08:59:59;95829.66;;;24.42;43.10
6218;BME280;3142;48.206;11.550;2023-05-29T09:02:26;95829.47;;;24.58;42.56
6218;BME280;3142;48.206;11.550;2023-05-29T09:04:54;95836.75;;;24.52;42.30
6218;BME280;3142;48.206;11.550;2023-05-29T09:07:22;95834.25;;;24.61;41.99
6218;BME280;3142;48.206;11.550;2023-05-29T09:09:52;95829.22;;;24.78;42.12
6218;BME280;3142;48.206;11.550;2023-05-29T09:12:18;95833.81;;;24.96;41.98
6218;BME280;3142;48.206;11.550;2023-05-29T09:14:45;95828.78;;;25.14;42.00
6218;BME280;3142;48.206;11.550;2023-05-29T09:17:12;95827.41;;;25.35;41.36
6218;BME280;3142;48.206;11.550;2023-05-29T09:19:40;95824.09;;;25.43;40.81
6218;BME280;3142;48.206;11.550;2023-05-29T09:22:09;95826.19;;;25.46;40.67
6218;BME280;3142;48.206;11.550;2023-05-29T09:24:37;95823.38;;;25.37;40.23
6218;BME280;3142;48.206;11.550;2023-05-29T09:27:05;95817.06;;;25.47;39.82
6218;BME280;3142;48.206;11.550;2023-05-29T09:29:36;95826.25;;;25.60;40.10
6218;BME280;3142;48.206;11.550;2023-05-29T09:32:06;95821.19;;;25.77;38.96
6218;BME280;3142;48.206;11.550;2023-05-29T09:34:33;95819.25;;;25.96;39.11
6218;BME280;3142;48.206;11.550;2023-05-29T09:37:01;95821.28;;;26.18;38.90
6218;BME280;3142;48.206;11.550;2023-05-29T09:39:33;95824.25;;;26.31;37.95
6218;BME280;3142;48.206;11.550;2023-05-29T09:42:00;95821.44;;;26.41;37.52
6218;BME280;3142;48.206;11.550;2023-05-29T09:44:27;95829.69;;;26.58;37.37
6218;BME280;3142;48.206;11.550;2023-05-29T09:46:58;95830.09;;;26.51;37.06
6218;BME280;3142;48.206;11.550;2023-05-29T09:49:25;95830.47;;;26.58;37.47
6218;BME280;3142;48.206;11.550;2023-05-29T09:51:53;95825.75;;;26.23;37.69
6218;BME280;3142;48.206;11.550;2023-05-29T09:54:20;95829.03;;;26.20;36.67
6218;BME280;3142;48.206;11.550;2023-05-29T09:56:46;95832.16;;;26.54;36.72
6218;BME280;3142;48.206;11.550;2023-05-29T09:59:14;95825.09;;;26.86;36.50
6218;BME280;3142;48.206;11.550;2023-05-29T10:01:44;95824.53;;;27.03;36.13
6218;BME280;3142;48.206;11.550;2023-05-29T10:04:11;95827.75;;;27.27;35.97
6218;BME280;3142;48.206;11.550;2023-05-29T10:06:44;95829.59;;;27.40;36.13
6218;BME280;3142;48.206;11.550;2023-05-29T10:09:12;95827.66;;;27.55;34.91
6218;BME280;3142;48.206;11.550;2023-05-29T10:11:42;95831.72;;;27.66;34.54
6218;BME280;3142;48.206;11.550;2023-05-29T10:14:12;95825.66;;;27.60;33.25
6218;BME280;3142;48.206;11.550;2023-05-29T10:16:42;95824.81;;;27.15;33.13
6218;BME280;3142;48.206;11.550;2023-05-29T10:19:12;95829.59;;;26.63;33.36
6218;BME280;3142;48.206;11.550;2023-05-29T10:21:41;95825.81;;;27.05;34.48
6218;BME280;3142;48.206;11.550;2023-05-29T10:24:10;95814.84;;;27.15;34.10
6218;BME280;3142;48.206;11.550;2023-05-29T10:26:39;95817.13;;;27.08;34.01
6218;BME280;3142;48.206;11.550;2023-05-29T10:29:10;95817.13;;;27.08;33.33
6218;BME280;3142;48.206;11.550;2023-05-29T10:31:46;95823.16;;;27.41;33.77
6218;BME280;3142;48.206;11.550;2023-05-29T10:34:23;95817.28;;;27.62;34.10
6218;BME280;3142;48.206;11.550;2023-05-29T10:37:02;95826.13;;;27.76;34.10
6218;BME280;3142;48.206;11.550;2023-05-29T10:39:31;95819.09;;;27.53;33.24
6218;BME280;3142;48.206;11.550;2023-05-29T10:41:58;95825.00;;;27.77;32.47
6218;BME280;3142;48.206;11.550;2023-05-29T10:44:38;95819.97;;;28.07;32.60
6218;BME280;3142;48.206;11.550;2023-05-29T10:47:06;95817.66;;;28.14;32.03
6218;BME280;3142;48.206;11.550;2023-05-29T10:49:35;95818.13;;;28.16;32.69
6218;BME280;3142;48.206;11.550;2023-05-29T10:52:03;95807.63;;;28.28;32.30
6218;BME280;3142;48.206;11.550;2023-05-29T10:54:40;95812.38;;;28.31;32.63
6218;BME280;3142;48.206;11.550;2023-05-29T10:57:08;95819.34;;;28.10;32.40
6218;BME280;3142;48.206;11.550;2023-05-29T10:59:36;95809.69;;;28.09;32.34
6218;BME280;3142;48.206;11.550;2023-05-29T11:02:03;95816.34;;;28.33;32.86
6218;BME280;3142;48.206;11.550;2023-05-29T11:04:30;95809.06;;;28.34;32.58
6218;BME280;3142;48.206;11.550;2023-05-29T11:07:00;95811.66;;;28.48;32.16
6218;BME280;3142;48.206;11.550;2023-05-29T11:09:32;95813.31;;;27.59;32.85
6218;BME280;3142;48.206;11.550;2023-05-29T11:12:14;95814.78;;;26.79;33.41
6218;BME280;3142;48.206;11.550;2023-05-29T11:14:54;95819.72;;;26.72;33.75
6218;BME280;3142;48.206;11.550;2023-05-29T11:17:43;95817.50;;;27.29;33.37
6218;BME280;3142;48.206;11.550;2023-05-29T11:20:17;95807.28;;;27.40;32.85
6218;BME280;3142;48.206;11.550;2023-05-29T11:22:56;95804.81;;;27.43;33.01
6218;BME280;3142;48.206;11.550;2023-05-29T11:25:26;95805.19;;;27.14;33.65
6218;BME280;3142;48.206;11.550;2023-05-29T11:27:53;95815.22;;;27.23;33.62
6218;BME280;3142;48.206;11.550;2023-05-29T11:30:19;95811.88;;;27.39;32.91
6218;BME280;3142;48.206;11.550;2023-05-29T11:32:48;95816.38;;;27.66;32.90
6218;BME280;3142;48.206;11.550;2023-05-29T11:35:15;95818.91;;;27.85;33.35
6218;BME280;3142;48.206;11.550;2023-05-29T11:37:43;95815.03;;;28.00;32.81
6218;BME280;3142;48.206;11.550;2023-05-29T11:40:13;95813.75;;;27.97;32.90
6218;BME280;3142;48.206;11.550;2023-05-29T11:42:41;95817.50;;;27.65;33.31
6218;BME280;3142;48.206;11.550;2023-05-29T11:45:11;95805.97;;;27.51;32.79
6218;BME280;3142;48.206;11.550;2023-05-29T11:47:55;95814.91;;;27.60;32.97
6218;BME280;3142;48.206;11.550;2023-05-29T11:50:22;95803.75;;;27.53;33.37
6218;BME280;3142;48.206;11.550;2023-05-29T11:52:49;95806.53;;;27.62;32.37
6218;BME280;3142;48.206;11.550;2023-05-29T11:55:18;95814.03;;;27.29;32.65
6218;BME280;3142;48.206;11.550;2023-05-29T11:57:45;95811.59;;;27.27;32.81
6218;BME280;3142;48.206;11.550;2023-05-29T12:00:14;95807.91;;;27.37;33.10
6218;BME280;3142;48.206;11.550;2023-05-29T12:02:41;95808.78;;;27.46;31.87
6218;BME280;3142;48.206;11.550;2023-05-29T12:05:09;95802.06;;;27.57;32.72
6218;BME280;3142;48.206;11.550;2023-05-29T12:07:38;95807.84;;;27.51;32.98
6218;BME280;3142;48.206;11.550;2023-05-29T12:10:09;95811.06;;;27.17;33.04
6218;BME280;3142;48.206;11.550;2023-05-29T12:12:37;95812.47;;;27.00;33.09
6218;BME280;3142;48.206;11.550;2023-05-29T12:15:05;95802.81;;;26.85;32.48
6218;BME280;3142;48.206;11.550;2023-05-29T12:17:32;95805.47;;;26.99;32.73
6218;BME280;3142;48.206;11.550;2023-05-29T12:19:59;95791.81;;;27.01;32.18
6218;BME280;3142;48.206;11.550;2023-05-29T12:22:32;95793.94;;;26.99;33.13
6218;BME280;3142;48.206;11.550;2023-05-29T12:25:04;95798.25;;;26.86;32.76
6218;BME280;3142;48.206;11.550;2023-05-29T12:27:31;95801.31;;;26.93;32.97
6218;BME280;3142;48.206;11.550;2023-05-29T12:30:05;95799.06;;;26.86;33.39
6218;BME280;3142;48.206;11.550;2023-05-29T12:32:36;95798.63;;;26.93;32.99
6218;BME280;3142;48.206;11.550;2023-05-29T12:35:13;95790.50;;;26.71;32.71
6218;BME280;3142;48.206;11.550;2023-05-29T12:37:44;95797.56;;;26.67;32.65
6218;BME280;3142;48.206;11.550;2023-05-29T12:40:18;95791.09;;;26.68;33.39
6218;BME280;3142;48.206;11.550;2023-05-29T12:42:45;95787.22;;;26.33;33.42
6218;BME280;3142;48.206;11.550;2023-05-29T12:45:14;95796.97;;;26.42;34.86
6218;BME280;3142;48.206;11.550;2023-05-29T12:47:51;95802.25;;;26.47;33.67
6218;BME280;3142;48.206;11.550;2023-05-29T12:50:25;95799.25;;;26.35;33.61
6218;BME280;3142;48.206;11.550;2023-05-29T12:52:59;95798.44;;;26.35;33.18
6218;BME280;3142;48.206;11.550;2023-05-29T12:55:27;95800.31;;;26.07;31.65
6218;BME280;3142;48.206;11.550;2023-05-29T12:57:54;95800.44;;;25.83;31.96
6218;BME280;3142;48.206;11.550;2023-05-29T13:00:22;95804.28;;;25.77;32.73
6218;BME280;3142;48.206;11.550;2023-05-29T13:02:50;95799.78;;;25.91;34.04
6218;BME280;3142;48.206;11.550;2023-05-29T13:05:17;95802.97;;;25.93;32.78
6218;BME280;3142;48.206;11.550;2023-05-29T13:07:45;95799.44;;;25.79;32.63
6218;BME280;3142;48.206;11.550;2023-05-29T13:10:13;95792.78;;;25.57;32.59
6218;BME280;3142;48.206;11.550;2023-05-29T13:12:39;95792.78;;;25.57;32.47
6218;BME280;3142;48.206;11.550;2023-05-29T13:15:07;95793.41;;;25.68;33.62